Terminal Aerodrome Forecast
Issued by NWS Sioux Falls, SD

Home | Current Version | Previous Version | Text Only | Print | Product List | Glossary Off
Versions: 1 2 3 4 5 6 7 8 9 10 11 12 13 14 15 16 17 18 19 20 21 22 23

000
FTUS43 KFSD 232324
TAFFSD
TAF
KFSD 232324Z 2400/2424 03008KT P6SM VCTS SCT050CB BKN070
     FM240200 03009KT P6SM VCSH BKN060
     FM240500 14009KT P6SM BKN050 WS020/18040KT
     FM241200 16009KT P6SM SCT030 BKN050
     FM241400 17009KT P6SM SCT050
     FM241800 20013KT P6SM VCSH BKN040=

USA.gov is the U.S. government's official web portal to all federal, state and local government web resources and services.